»·PEaware :: SKW5961 KASE-KDEN

SKW5961 :: KASE-KDEN

FLIGHT INFORMATION

Flight Status: Arrived
Operator:
SkyWest Airlines
More flights by this operator :: More flights under this callsign
Pilot: Brennen D. (26863)
Aircraft: CANADAIR CL-600 CRJ-200
(CRJ2)
More flights by this aircraft type
Origin: KASE Aspen-Pitkin Co/Sardy
United States
Destination: KDEN Denver Intl
United States
More flights between these airports :: More routes between these airports
Route: +LINDZ9 DBL JNETT TELLR2
File this flight plan on PilotEdge
Remarks:
Altitude:
(Current/Filed)
23,000ft
Speed:
(Current/Filed)
280kts
Departed: 05-Dec-19 05:26 PM
Arrived: 05-Dec-19 06:00 PM
Distance/Time
Traveled:
109nm/0:33
Distance/Time
To Go:
Arrived

Flight Plot

Page will automatically refresh every two minutes.

Flight plan parsing failed; only flown route is shown


Map Options




Map Legend


Flown Route
Filed Route
Departure Airport
Arrival Airport
Navaid (VOR, NDB)
Fix

Horizontal Profiles

Position Reports

Time Latitude Longitude Heading Altitude Ground
Speed
05-Dec-19 16:49 39.219466 -106.865093 79 7778ft 0kts
05-Dec-19 16:50 39.219466 -106.865093 79 7778ft 0kts
05-Dec-19 16:51 39.219466 -106.865093 79 7778ft 0kts
05-Dec-19 16:52 39.219466 -106.865093 79 7778ft 0kts
05-Dec-19 16:53 39.219466 -106.865093 79 7778ft 0kts
05-Dec-19 16:54 39.219466 -106.865093 79 7778ft 0kts
05-Dec-19 16:55 39.219466 -106.865093 79 7778ft 0kts
05-Dec-19 16:56 39.219466 -106.865093 79 7778ft 0kts
05-Dec-19 16:57 39.219466 -106.865093 79 7778ft 0kts
05-Dec-19 16:58 39.219466 -106.865093 79 7778ft 0kts
05-Dec-19 16:59 39.219466 -106.865093 79 7778ft 0kts
05-Dec-19 17:00 39.219466 -106.865093 79 7778ft 0kts
05-Dec-19 17:01 39.219466 -106.865093 79 7778ft 0kts
05-Dec-19 17:02 39.219466 -106.865093 79 7778ft 0kts
05-Dec-19 17:03 39.219466 -106.865093 79 7778ft 0kts
05-Dec-19 17:04 39.219466 -106.865093 79 7778ft 0kts
05-Dec-19 17:05 39.219466 -106.865093 79 7778ft 0kts
05-Dec-19 17:06 39.219466 -106.865093 79 7778ft 0kts
05-Dec-19 17:07 39.219466 -106.865093 79 7778ft 0kts
05-Dec-19 17:08 39.219466 -106.865093 79 7778ft 0kts
05-Dec-19 17:09 39.219466 -106.865093 79 7778ft 0kts
05-Dec-19 17:10 39.219466 -106.865093 79 7778ft 0kts
05-Dec-19 17:11 39.219466 -106.865093 79 7778ft 0kts
05-Dec-19 17:12 39.219466 -106.865093 79 7778ft 0kts
05-Dec-19 17:13 39.219466 -106.865093 79 7778ft 0kts
05-Dec-19 17:14 39.219466 -106.865093 79 7778ft 0kts
05-Dec-19 17:15 39.219466 -106.865093 79 7778ft 0kts
05-Dec-19 17:16 39.219449 -106.865210 79 7778ft 2kts
05-Dec-19 17:17 39.219396 -106.865586 80 7778ft 0kts
05-Dec-19 17:18 39.219396 -106.865586 80 7778ft 0kts
05-Dec-19 17:19 39.219396 -106.865586 80 7778ft 0kts
05-Dec-19 17:20 39.219357 -106.865499 147 7779ft 2kts
05-Dec-19 17:21 39.217629 -106.865000 160 7792ft 2kts
05-Dec-19 17:22 39.216754 -106.864592 159 7802ft 2kts
05-Dec-19 17:23 39.215065 -106.863861 197 7816ft 0kts
05-Dec-19 17:24 39.215175 -106.865057 339 7815ft 21kts
05-Dec-19 17:25 39.259685 -106.880625 338 9058ft 241kts
05-Dec-19 17:26 39.283029 -106.954795 278 11257ft 221kts
05-Dec-19 17:27 39.307228 -107.037852 310 13740ft 327kts
05-Dec-19 17:28 39.381309 -107.115570 358 16127ft 378kts
05-Dec-19 17:29 39.455424 -107.031580 73 17565ft 402kts
05-Dec-19 17:30 39.441435 -106.904946 104 18390ft 396kts
05-Dec-19 17:31 39.414621 -106.776430 101 20013ft 356kts
05-Dec-19 17:32 39.386707 -106.641979 102 21954ft 398kts
05-Dec-19 17:33 39.356748 -106.500153 102 22770ft 417kts
05-Dec-19 17:34 39.337508 -106.430689 108 22541ft 423kts
05-Dec-19 17:35 39.309803 -106.308454 92 22558ft 412kts
05-Dec-19 17:36 39.297451 -106.161909 95 22023ft 419kts
05-Dec-19 17:37 39.280333 -106.014992 97 21367ft 396kts
05-Dec-19 17:38 39.267216 -105.875613 79 19434ft 401kts
05-Dec-19 17:39 39.306103 -105.741869 64 17182ft 403kts
05-Dec-19 17:40 39.346512 -105.611630 65 16606ft 355kts
05-Dec-19 17:41 39.381263 -105.496967 65 16719ft 335kts
05-Dec-19 17:42 39.416794 -105.377946 67 16330ft 364kts
05-Dec-19 17:43 39.432133 -105.248718 81 14677ft 356kts
05-Dec-19 17:44 39.440913 -105.129700 81 11960ft 312kts
05-Dec-19 17:45 39.449085 -105.022551 82 9958ft 278kts
05-Dec-19 17:46 39.455676 -104.930658 84 8457ft 216kts
05-Dec-19 17:47 39.463795 -104.831750 80 8098ft 314kts
05-Dec-19 17:48 39.474929 -104.736097 79 8650ft 213kts
05-Dec-19 17:49 39.483868 -104.661723 80 8531ft 207kts
05-Dec-19 17:50 39.506156 -104.588739 38 7644ft 207kts
05-Dec-19 17:51 39.565293 -104.585244 347 8159ft 252kts
05-Dec-19 17:52 39.616982 -104.615111 333 9022ft 228kts
05-Dec-19 17:53 39.664245 -104.648837 335 9292ft 162kts
05-Dec-19 17:54 39.701122 -104.664011 357 8628ft 129kts
05-Dec-19 17:55 39.728265 -104.663348 3 8233ft 133kts
05-Dec-19 17:56 39.764206 -104.661449 0 7710ft 130kts
05-Dec-19 17:57 39.800325 -104.660693 357 6400ft 133kts
05-Dec-19 17:58 39.834634 -104.660551 0 5423ft 95kts
05-Dec-19 17:59 39.846103 -104.660429 354 5395ft 7kts
05-Dec-19 18:00 39.846089 -104.660428 355 5395ft 0kts

Navigation Log

Ident Type
Flight plan parsing failed, navigation log unavailable